sensor_id;sensor_type;location;lat;lon;timestamp;temperature;humidity
54126;DHT22;40360;52.992;6.796;2022-09-13T00:01:16;17.20;99.90
54126;DHT22;40360;52.992;6.796;2022-09-13T00:03:41;17.20;99.90
54126;DHT22;40360;52.992;6.796;2022-09-13T00:06:12;17.20;99.90
54126;DHT22;40360;52.992;6.796;2022-09-13T00:08:38;17.10;99.90
54126;DHT22;40360;52.992;6.796;2022-09-13T00:11:04;17.10;99.90
54126;DHT22;40360;52.992;6.796;2022-09-13T00:13:30;17.00;99.90
54126;DHT22;40360;52.992;6.796;2022-09-13T00:15:55;17.10;99.90
54126;DHT22;40360;52.992;6.796;2022-09-13T00:18:22;17.00;99.90
54126;DHT22;40360;52.992;6.796;2022-09-13T00:20:48;17.00;99.90
54126;DHT22;40360;52.992;6.796;2022-09-13T00:23:14;17.20;99.90
54126;DHT22;40360;52.992;6.796;2022-09-13T00:25:40;17.10;99.90
54126;DHT22;40360;52.992;6.796;2022-09-13T00:28:06;17.20;99.90
54126;DHT22;40360;52.992;6.796;2022-09-13T00:30:31;17.50;99.90
54126;DHT22;40360;52.992;6.796;2022-09-13T00:32:57;17.20;99.90
54126;DHT22;40360;52.992;6.796;2022-09-13T00:35:23;17.10;99.90
54126;DHT22;40360;52.992;6.796;2022-09-13T00:37:49;17.00;99.90
54126;DHT22;40360;52.992;6.796;2022-09-13T00:40:15;17.00;99.90
54126;DHT22;40360;52.992;6.796;2022-09-13T00:42:40;17.10;99.90
54126;DHT22;40360;52.992;6.796;2022-09-13T00:47:43;17.10;99.90
54126;DHT22;40360;52.992;6.796;2022-09-13T00:52:40;17.10;99.90
54126;DHT22;40360;52.992;6.796;2022-09-13T00:55:15;17.30;99.90
54126;DHT22;40360;52.992;6.796;2022-09-13T00:57:42;17.10;99.90
54126;DHT22;40360;52.992;6.796;2022-09-13T01:00:13;17.10;99.90
54126;DHT22;40360;52.992;6.796;2022-09-13T01:05:43;17.00;99.90
54126;DHT22;40360;52.992;6.796;2022-09-13T01:08:11;17.00;99.90
54126;DHT22;40360;52.992;6.796;2022-09-13T01:10:43;17.00;99.90
54126;DHT22;40360;52.992;6.796;2022-09-13T01:13:13;17.00;99.90
54126;DHT22;40360;52.992;6.796;2022-09-13T01:15:41;17.00;99.90
54126;DHT22;40360;52.992;6.796;2022-09-13T01:18:08;17.00;99.90
54126;DHT22;40360;52.992;6.796;2022-09-13T01:21:07;17.00;99.90
54126;DHT22;40360;52.992;6.796;2022-09-13T01:24:04;17.00;99.90
54126;DHT22;40360;52.992;6.796;2022-09-13T01:35:40;17.00;99.90
54126;DHT22;40360;52.992;6.796;2022-09-13T01:41:20;16.90;99.90
54126;DHT22;40360;52.992;6.796;2022-09-13T01:43:57;16.90;99.90
54126;DHT22;40360;52.992;6.796;2022-09-13T01:46:42;16.90;99.90
54126;DHT22;40360;52.992;6.796;2022-09-13T01:49:36;16.90;99.90
54126;DHT22;40360;52.992;6.796;2022-09-13T01:52:15;16.80;99.90
54126;DHT22;40360;52.992;6.796;2022-09-13T01:54:51;16.80;99.90
54126;DHT22;40360;52.992;6.796;2022-09-13T01:57:32;16.80;99.90
54126;DHT22;40360;52.992;6.796;2022-09-13T02:00:12;16.80;99.90
54126;DHT22;40360;52.992;6.796;2022-09-13T02:03:00;16.80;99.90
54126;DHT22;40360;52.992;6.796;2022-09-13T02:06:09;16.90;99.90
54126;DHT22;40360;52.992;6.796;2022-09-13T02:08:42;16.90;99.90
54126;DHT22;40360;52.992;6.796;2022-09-13T02:11:14;16.80;99.90
54126;DHT22;40360;52.992;6.796;2022-09-13T02:14:15;16.90;99.90
54126;DHT22;40360;52.992;6.796;2022-09-13T02:16:55;16.90;99.90
54126;DHT22;40360;52.992;6.796;2022-09-13T02:19:30;16.90;99.90
54126;DHT22;40360;52.992;6.796;2022-09-13T02:21:59;16.90;99.90
54126;DHT22;40360;52.992;6.796;2022-09-13T02:24:31;16.90;99.90
54126;DHT22;40360;52.992;6.796;2022-09-13T02:27:00;16.90;99.90
54126;DHT22;40360;52.992;6.796;2022-09-13T02:29:28;16.90;99.90
54126;DHT22;40360;52.992;6.796;2022-09-13T02:32:19;17.70;99.90
54126;DHT22;40360;52.992;6.796;2022-09-13T02:34:50;16.90;99.90
54126;DHT22;40360;52.992;6.796;2022-09-13T02:37:18;17.00;99.90
54126;DHT22;40360;52.992;6.796;2022-09-13T02:39:52;16.90;99.90
54126;DHT22;40360;52.992;6.796;2022-09-13T02:42:21;16.90;99.90
54126;DHT22;40360;52.992;6.796;2022-09-13T02:44:51;16.90;99.90
54126;DHT22;40360;52.992;6.796;2022-09-13T02:58:45;16.90;99.90
54126;DHT22;40360;52.992;6.796;2022-09-13T03:01:11;16.90;99.90
54126;DHT22;40360;52.992;6.796;2022-09-13T03:03:37;16.80;99.90
54126;DHT22;40360;52.992;6.796;2022-09-13T03:06:03;16.90;99.90
54126;DHT22;40360;52.992;6.796;2022-09-13T03:08:29;16.90;99.90
54126;DHT22;40360;52.992;6.796;2022-09-13T03:11:21;16.80;99.90
54126;DHT22;40360;52.992;6.796;2022-09-13T03:14:07;16.90;99.90
54126;DHT22;40360;52.992;6.796;2022-09-13T03:19:40;16.90;99.90
54126;DHT22;40360;52.992;6.796;2022-09-13T03:30:20;16.90;99.90
54126;DHT22;40360;52.992;6.796;2022-09-13T03:33:09;16.90;99.90
54126;DHT22;40360;52.992;6.796;2022-09-13T03:35:56;16.90;99.90
54126;DHT22;40360;52.992;6.796;2022-09-13T03:38:32;16.90;99.90
54126;DHT22;40360;52.992;6.796;2022-09-13T03:41:08;16.90;99.90
54126;DHT22;40360;52.992;6.796;2022-09-13T03:43:35;16.90;99.90
54126;DHT22;40360;52.992;6.796;2022-09-13T03:46:40;16.90;99.90
54126;DHT22;40360;52.992;6.796;2022-09-13T03:49:13;16.90;99.90
54126;DHT22;40360;52.992;6.796;2022-09-13T03:51:41;16.90;99.90
54126;DHT22;40360;52.992;6.796;2022-09-13T03:54:14;16.90;99.90
54126;DHT22;40360;52.992;6.796;2022-09-13T03:56:40;16.90;99.90
54126;DHT22;40360;52.992;6.796;2022-09-13T03:59:06;16.90;99.90
54126;DHT22;40360;52.992;6.796;2022-09-13T04:01:32;16.80;99.90
54126;DHT22;40360;52.992;6.796;2022-09-13T04:03:57;16.90;99.90
54126;DHT22;40360;52.992;6.796;2022-09-13T04:06:23;17.50;99.90
54126;DHT22;40360;52.992;6.796;2022-09-13T04:08:49;17.00;99.90
54126;DHT22;40360;52.992;6.796;2022-09-13T04:11:15;17.40;99.90
54126;DHT22;40360;52.992;6.796;2022-09-13T04:13:40;17.00;99.90
54126;DHT22;40360;52.992;6.796;2022-09-13T04:16:06;17.10;99.90
54126;DHT22;40360;52.992;6.796;2022-09-13T04:18:32;17.10;99.90
54126;DHT22;40360;52.992;6.796;2022-09-13T04:20:59;17.10;99.90
54126;DHT22;40360;52.992;6.796;2022-09-13T04:23:27;17.80;99.90
54126;DHT22;40360;52.992;6.796;2022-09-13T04:25:53;17.10;99.90
54126;DHT22;40360;52.992;6.796;2022-09-13T04:28:20;17.20;99.90
54126;DHT22;40360;52.992;6.796;2022-09-13T04:30:49;17.20;99.90
54126;DHT22;40360;52.992;6.796;2022-09-13T04:33:15;17.20;99.90
54126;DHT22;40360;52.992;6.796;2022-09-13T04:35:41;17.20;99.90
54126;DHT22;40360;52.992;6.796;2022-09-13T04:38:08;17.20;99.90
54126;DHT22;40360;52.992;6.796;2022-09-13T04:40:34;17.20;99.90
54126;DHT22;40360;52.992;6.796;2022-09-13T04:43:00;17.30;99.90
54126;DHT22;40360;52.992;6.796;2022-09-13T04:45:27;17.30;99.90
54126;DHT22;40360;52.992;6.796;2022-09-13T04:47:53;17.30;99.90
54126;DHT22;40360;52.992;6.796;2022-09-13T04:50:20;17.30;99.90
54126;DHT22;40360;52.992;6.796;2022-09-13T04:52:46;17.30;99.90
54126;DHT22;40360;52.992;6.796;2022-09-13T04:55:12;17.50;99.90
54126;DHT22;40360;52.992;6.796;2022-09-13T04:57:39;17.30;99.90
54126;DHT22;40360;52.992;6.796;2022-09-13T05:00:05;17.60;99.90
54126;DHT22;40360;52.992;6.796;2022-09-13T05:02:31;17.30;99.90
54126;DHT22;40360;52.992;6.796;2022-09-13T05:21:46;17.30;99.90
54126;DHT22;40360;52.992;6.796;2022-09-13T05:24:12;17.20;99.90
54126;DHT22;40360;52.992;6.796;2022-09-13T05:26:37;17.20;99.90
54126;DHT22;40360;52.992;6.796;2022-09-13T05:29:03;17.20;99.90
54126;DHT22;40360;52.992;6.796;2022-09-13T05:31:35;17.20;99.90
54126;DHT22;40360;52.992;6.796;2022-09-13T05:34:08;17.20;99.90
54126;DHT22;40360;52.992;6.796;2022-09-13T05:36:35;17.20;99.90
54126;DHT22;40360;52.992;6.796;2022-09-13T05:39:01;17.20;99.90
54126;DHT22;40360;52.992;6.796;2022-09-13T05:41:27;17.20;99.90
54126;DHT22;40360;52.992;6.796;2022-09-13T05:43:52;17.20;99.90
54126;DHT22;40360;52.992;6.796;2022-09-13T05:46:19;17.20;99.90
54126;DHT22;40360;52.992;6.796;2022-09-13T05:48:46;17.20;99.90
54126;DHT22;40360;52.992;6.796;2022-09-13T05:51:17;17.20;99.90
54126;DHT22;40360;52.992;6.796;2022-09-13T05:53:49;17.20;99.90
54126;DHT22;40360;52.992;6.796;2022-09-13T05:56:20;17.30;99.90
54126;DHT22;40360;52.992;6.796;2022-09-13T05:58:47;17.20;99.90
54126;DHT22;40360;52.992;6.796;2022-09-13T06:01:15;17.20;99.90
54126;DHT22;40360;52.992;6.796;2022-09-13T06:03:41;17.20;99.90
54126;DHT22;40360;52.992;6.796;2022-09-13T06:06:07;17.20;99.90
54126;DHT22;40360;52.992;6.796;2022-09-13T06:08:34;17.20;99.90
54126;DHT22;40360;52.992;6.796;2022-09-13T06:11:00;17.20;99.90
54126;DHT22;40360;52.992;6.796;2022-09-13T06:13:27;17.30;99.90
54126;DHT22;40360;52.992;6.796;2022-09-13T06:15:54;17.30;99.90
54126;DHT22;40360;52.992;6.796;2022-09-13T06:18:20;17.30;99.90
54126;DHT22;40360;52.992;6.796;2022-09-13T06:20:46;17.30;99.90
54126;DHT22;40360;52.992;6.796;2022-09-13T06:23:13;17.30;99.90
54126;DHT22;40360;52.992;6.796;2022-09-13T06:25:38;17.30;99.90
54126;DHT22;40360;52.992;6.796;2022-09-13T06:28:04;17.90;99.90
54126;DHT22;40360;52.992;6.796;2022-09-13T06:30:30;17.30;99.90
54126;DHT22;40360;52.992;6.796;2022-09-13T06:32:56;17.30;99.90
54126;DHT22;40360;52.992;6.796;2022-09-13T06:35:22;17.20;99.90
54126;DHT22;40360;52.992;6.796;2022-09-13T06:37:48;17.80;99.90
54126;DHT22;40360;52.992;6.796;2022-09-13T06:40:13;17.20;99.90
54126;DHT22;40360;52.992;6.796;2022-09-13T06:42:39;17.20;99.90
54126;DHT22;40360;52.992;6.796;2022-09-13T06:45:05;17.20;99.90
54126;DHT22;40360;52.992;6.796;2022-09-13T06:47:31;17.20;99.90
54126;DHT22;40360;52.992;6.796;2022-09-13T06:49:57;17.10;99.90
54126;DHT22;40360;52.992;6.796;2022-09-13T06:52:23;17.10;99.90
54126;DHT22;40360;52.992;6.796;2022-09-13T06:54:49;17.10;99.90
54126;DHT22;40360;52.992;6.796;2022-09-13T06:57:15;17.20;99.90
54126;DHT22;40360;52.992;6.796;2022-09-13T06:59:40;17.20;99.90
54126;DHT22;40360;52.992;6.796;2022-09-13T07:02:06;17.20;99.90
54126;DHT22;40360;52.992;6.796;2022-09-13T07:04:35;17.20;99.90
54126;DHT22;40360;52.992;6.796;2022-09-13T07:07:00;17.90;99.90
54126;DHT22;40360;52.992;6.796;2022-09-13T07:09:26;17.30;99.90
54126;DHT22;40360;52.992;6.796;2022-09-13T07:11:53;17.20;99.90
54126;DHT22;40360;52.992;6.796;2022-09-13T07:14:21;17.30;99.90
54126;DHT22;40360;52.992;6.796;2022-09-13T07:16:48;17.30;99.90
54126;DHT22;40360;52.992;6.796;2022-09-13T07:19:20;17.60;99.90
54126;DHT22;40360;52.992;6.796;2022-09-13T07:21:48;17.40;99.90
54126;DHT22;40360;52.992;6.796;2022-09-13T07:24:15;17.40;99.90
54126;DHT22;40360;52.992;6.796;2022-09-13T07:26:41;17.50;99.90
54126;DHT22;40360;52.992;6.796;2022-09-13T07:29:11;17.50;99.90
54126;DHT22;40360;52.992;6.796;2022-09-13T07:31:39;17.50;99.90
54126;DHT22;40360;52.992;6.796;2022-09-13T07:34:07;17.60;99.90
54126;DHT22;40360;52.992;6.796;2022-09-13T07:36:36;18.10;99.90
54126;DHT22;40360;52.992;6.796;2022-09-13T07:39:02;17.70;99.90
54126;DHT22;40360;52.992;6.796;2022-09-13T07:41:29;17.80;99.90
54126;DHT22;40360;52.992;6.796;2022-09-13T07:43:55;17.90;99.90
54126;DHT22;40360;52.992;6.796;2022-09-13T07:46:26;18.00;99.90
54126;DHT22;40360;52.992;6.796;2022-09-13T07:48:53;18.20;99.90
54126;DHT22;40360;52.992;6.796;2022-09-13T07:51:24;18.20;99.90
54126;DHT22;40360;52.992;6.796;2022-09-13T07:53:51;18.30;99.90
54126;DHT22;40360;52.992;6.796;2022-09-13T07:56:21;18.80;99.90
54126;DHT22;40360;52.992;6.796;2022-09-13T07:58:49;18.60;99.90
54126;DHT22;40360;52.992;6.796;2022-09-13T08:01:23;18.40;99.90
54126;DHT22;40360;52.992;6.796;2022-09-13T08:03:51;18.40;99.90
54126;DHT22;40360;52.992;6.796;2022-09-13T08:06:17;18.50;99.90
54126;DHT22;40360;52.992;6.796;2022-09-13T08:08:43;18.70;99.90
54126;DHT22;40360;52.992;6.796;2022-09-13T08:11:14;18.60;99.90
54126;DHT22;40360;52.992;6.796;2022-09-13T08:13:40;18.70;99.90
54126;DHT22;40360;52.992;6.796;2022-09-13T08:16:06;19.40;99.90
54126;DHT22;40360;52.992;6.796;2022-09-13T08:18:32;18.80;99.90
54126;DHT22;40360;52.992;6.796;2022-09-13T08:20:59;18.80;99.90
54126;DHT22;40360;52.992;6.796;2022-09-13T08:23:25;18.70;99.90
54126;DHT22;40360;52.992;6.796;2022-09-13T08:25:51;19.20;99.90
54126;DHT22;40360;52.992;6.796;2022-09-13T08:28:19;18.80;99.90
54126;DHT22;40360;52.992;6.796;2022-09-13T08:30:49;18.80;99.90
54126;DHT22;40360;52.992;6.796;2022-09-13T08:33:15;19.00;99.90
54126;DHT22;40360;52.992;6.796;2022-09-13T08:35:49;19.10;99.90
54126;DHT22;40360;52.992;6.796;2022-09-13T08:38:15;19.10;99.90
54126;DHT22;40360;52.992;6.796;2022-09-13T08:40:46;19.30;99.90
54126;DHT22;40360;52.992;6.796;2022-09-13T08:46:23;19.10;99.90
54126;DHT22;40360;52.992;6.796;2022-09-13T08:48:52;19.20;99.90
54126;DHT22;40360;52.992;6.796;2022-09-13T08:51:27;19.30;99.90
54126;DHT22;40360;52.992;6.796;2022-09-13T08:53:56;19.30;99.90
54126;DHT22;40360;52.992;6.796;2022-09-13T08:56:23;19.30;99.90
54126;DHT22;40360;52.992;6.796;2022-09-13T09:06:49;19.60;99.90
54126;DHT22;40360;52.992;6.796;2022-09-13T09:09:19;20.10;99.90
54126;DHT22;40360;52.992;6.796;2022-09-13T09:14:31;19.90;99.90
54126;DHT22;40360;52.992;6.796;2022-09-13T09:17:01;20.00;99.90
54126;DHT22;40360;52.992;6.796;2022-09-13T09:20:05;20.10;99.90
54126;DHT22;40360;52.992;6.796;2022-09-13T09:22:34;20.10;99.90
54126;DHT22;40360;52.992;6.796;2022-09-13T09:25:00;20.00;99.90
54126;DHT22;40360;52.992;6.796;2022-09-13T09:27:29;19.90;99.90
54126;DHT22;40360;52.992;6.796;2022-09-13T09:29:55;19.90;99.90
54126;DHT22;40360;52.992;6.796;2022-09-13T09:32:35;19.90;99.90
54126;DHT22;40360;52.992;6.796;2022-09-13T09:35:37;19.90;99.90
54126;DHT22;40360;52.992;6.796;2022-09-13T09:38:31;19.90;99.90
54126;DHT22;40360;52.992;6.796;2022-09-13T09:43:42;20.30;99.90
54126;DHT22;40360;52.992;6.796;2022-09-13T09:46:11;20.50;99.90
54126;DHT22;40360;52.992;6.796;2022-09-13T09:49:00;20.30;99.90
54126;DHT22;40360;52.992;6.796;2022-09-13T09:51:29;20.20;99.90
54126;DHT22;40360;52.992;6.796;2022-09-13T09:54:00;20.30;99.90
54126;DHT22;40360;52.992;6.796;2022-09-13T09:56:33;20.40;99.90
54126;DHT22;40360;52.992;6.796;2022-09-13T09:58:59;20.60;99.90
54126;DHT22;40360;52.992;6.796;2022-09-13T10:01:33;20.50;99.90
54126;DHT22;40360;52.992;6.796;2022-09-13T10:06:33;20.70;99.90
54126;DHT22;40360;52.992;6.796;2022-09-13T10:09:03;21.00;99.90
54126;DHT22;40360;52.992;6.796;2022-09-13T10:11:48;20.90;99.90
54126;DHT22;40360;52.992;6.796;2022-09-13T10:14:41;21.00;99.90
54126;DHT22;40360;52.992;6.796;2022-09-13T10:17:23;21.10;99.90
54126;DHT22;40360;52.992;6.796;2022-09-13T10:20:00;21.30;99.90
54126;DHT22;40360;52.992;6.796;2022-09-13T10:22:30;21.20;99.90
54126;DHT22;40360;52.992;6.796;2022-09-13T10:25:24;21.10;99.90
54126;DHT22;40360;52.992;6.796;2022-09-13T10:27:53;20.60;99.90
54126;DHT22;40360;52.992;6.796;2022-09-13T10:32:57;20.40;99.90
54126;DHT22;40360;52.992;6.796;2022-09-13T10:35:23;20.30;99.90
54126;DHT22;40360;52.992;6.796;2022-09-13T10:37:50;20.40;99.90
54126;DHT22;40360;52.992;6.796;2022-09-13T10:40:23;20.80;99.90
54126;DHT22;40360;52.992;6.796;2022-09-13T10:42:56;20.70;99.90
54126;DHT22;40360;52.992;6.796;2022-09-13T10:45:24;20.80;99.90
54126;DHT22;40360;52.992;6.796;2022-09-13T10:47:54;21.00;99.90
54126;DHT22;40360;52.992;6.796;2022-09-13T10:50:27;21.10;99.90
54126;DHT22;40360;52.992;6.796;2022-09-13T10:52:58;21.20;99.90
54126;DHT22;40360;52.992;6.796;2022-09-13T10:55:31;21.30;99.90
54126;DHT22;40360;52.992;6.796;2022-09-13T11:09:09;21.50;99.90
54126;DHT22;40360;52.992;6.796;2022-09-13T11:14:36;21.10;99.90
54126;DHT22;40360;52.992;6.796;2022-09-13T11:17:33;21.30;99.90
54126;DHT22;40360;52.992;6.796;2022-09-13T11:25:28;21.80;99.90
54126;DHT22;40360;52.992;6.796;2022-09-13T11:41:57;21.30;99.90
54126;DHT22;40360;52.992;6.796;2022-09-13T11:53:09;22.00;99.90
54126;DHT22;40360;52.992;6.796;2022-09-13T11:56:10;22.10;99.90
54126;DHT22;40360;52.992;6.796;2022-09-13T11:58:59;22.20;99.90
54126;DHT22;40360;52.992;6.796;2022-09-13T12:01:35;22.10;99.90
54126;DHT22;40360;52.992;6.796;2022-09-13T12:04:05;22.00;99.90
54126;DHT22;40360;52.992;6.796;2022-09-13T12:06:43;21.80;99.90
54126;DHT22;40360;52.992;6.796;2022-09-13T12:09:18;21.80;99.90
54126;DHT22;40360;52.992;6.796;2022-09-13T12:12:04;22.00;99.90
54126;DHT22;40360;52.992;6.796;2022-09-13T12:14:44;22.00;99.90
54126;DHT22;40360;52.992;6.796;2022-09-13T12:17:42;22.20;99.90
54126;DHT22;40360;52.992;6.796;2022-09-13T12:23:30;22.50;99.90
54126;DHT22;40360;52.992;6.796;2022-09-13T12:25:59;22.30;99.90
54126;DHT22;40360;52.992;6.796;2022-09-13T12:28:43;22.20;99.90
54126;DHT22;40360;52.992;6.796;2022-09-13T12:31:17;22.10;99.90
54126;DHT22;40360;52.992;6.796;2022-09-13T12:33:44;22.20;99.90
54126;DHT22;40360;52.992;6.796;2022-09-13T13:02:50;22.80;99.90
54126;DHT22;40360;52.992;6.796;2022-09-13T13:05:30;22.80;99.90
54126;DHT22;40360;52.992;6.796;2022-09-13T13:08:01;22.80;99.90
54126;DHT22;40360;52.992;6.796;2022-09-13T13:10:33;22.70;99.90
54126;DHT22;40360;52.992;6.796;2022-09-13T13:13:17;22.60;99.90
54126;DHT22;40360;52.992;6.796;2022-09-13T13:18:28;22.80;99.90
54126;DHT22;40360;52.992;6.796;2022-09-13T13:26:10;22.50;99.90
54126;DHT22;40360;52.992;6.796;2022-09-13T13:46:53;22.10;99.90
54126;DHT22;40360;52.992;6.796;2022-09-13T14:00:19;21.90;99.90
54126;DHT22;40360;52.992;6.796;2022-09-13T14:14:21;21.20;99.90
54126;DHT22;40360;52.992;6.796;2022-09-13T14:16:59;21.10;99.90
54126;DHT22;40360;52.992;6.796;2022-09-13T14:24:50;21.00;99.90
54126;DHT22;40360;52.992;6.796;2022-09-13T14:27:26;20.90;99.90
54126;DHT22;40360;52.992;6.796;2022-09-13T14:29:56;20.90;99.90
54126;DHT22;40360;52.992;6.796;2022-09-13T14:32:28;20.70;99.90
54126;DHT22;40360;52.992;6.796;2022-09-13T14:34:58;20.70;99.90
54126;DHT22;40360;52.992;6.796;2022-09-13T14:37:30;20.60;99.90
54126;DHT22;40360;52.992;6.796;2022-09-13T14:39:57;20.60;99.90
54126;DHT22;40360;52.992;6.796;2022-09-13T14:42:24;20.60;99.90
54126;DHT22;40360;52.992;6.796;2022-09-13T14:44:49;20.60;99.90
54126;DHT22;40360;52.992;6.796;2022-09-13T14:47:27;20.80;99.90
54126;DHT22;40360;52.992;6.796;2022-09-13T14:50:05;20.40;99.90
54126;DHT22;40360;52.992;6.796;2022-09-13T14:52:36;20.30;99.90
54126;DHT22;40360;52.992;6.796;2022-09-13T14:55:10;20.30;99.90
54126;DHT22;40360;52.992;6.796;2022-09-13T14:57:40;20.20;99.90
54126;DHT22;40360;52.992;6.796;2022-09-13T15:00:17;20.80;99.90
54126;DHT22;40360;52.992;6.796;2022-09-13T15:02:53;20.10;99.90
54126;DHT22;40360;52.992;6.796;2022-09-13T15:05:23;20.10;99.90
54126;DHT22;40360;52.992;6.796;2022-09-13T15:07:49;20.20;99.90
54126;DHT22;40360;52.992;6.796;2022-09-13T15:10:28;20.20;99.90
54126;DHT22;40360;52.992;6.796;2022-09-13T15:13:07;20.20;99.90
54126;DHT22;40360;52.992;6.796;2022-09-13T15:20:50;20.10;99.90
54126;DHT22;40360;52.992;6.796;2022-09-13T15:23:33;20.10;99.90
54126;DHT22;40360;52.992;6.796;2022-09-13T15:28:31;20.10;99.90
54126;DHT22;40360;52.992;6.796;2022-09-13T15:30:59;20.10;99.90
54126;DHT22;40360;52.992;6.796;2022-09-13T15:33:30;20.00;99.90
54126;DHT22;40360;52.992;6.796;2022-09-13T15:41:33;19.80;99.90
54126;DHT22;40360;52.992;6.796;2022-09-13T15:44:00;19.80;99.90
54126;DHT22;40360;52.992;6.796;2022-09-13T15:46:27;19.70;99.90
54126;DHT22;40360;52.992;6.796;2022-09-13T15:48:55;20.10;99.90
54126;DHT22;40360;52.992;6.796;2022-09-13T15:51:21;20.00;99.90
54126;DHT22;40360;52.992;6.796;2022-09-13T15:53:47;20.00;99.90
54126;DHT22;40360;52.992;6.796;2022-09-13T15:56:33;20.10;99.90
54126;DHT22;40360;52.992;6.796;2022-09-13T15:58:59;19.60;99.90
54126;DHT22;40360;52.992;6.796;2022-09-13T16:01:25;19.80;99.90
54126;DHT22;40360;52.992;6.796;2022-09-13T16:03:52;19.60;99.90
54126;DHT22;40360;52.992;6.796;2022-09-13T16:06:17;19.50;99.90
54126;DHT22;40360;52.992;6.796;2022-09-13T16:08:43;19.50;99.90
54126;DHT22;40360;52.992;6.796;2022-09-13T16:11:09;19.40;99.90
54126;DHT22;40360;52.992;6.796;2022-09-13T16:13:34;19.40;99.90
54126;DHT22;40360;52.992;6.796;2022-09-13T16:16:01;19.60;99.90
54126;DHT22;40360;52.992;6.796;2022-09-13T16:18:27;19.30;99.90
54126;DHT22;40360;52.992;6.796;2022-09-13T16:20:52;19.40;99.90
54126;DHT22;40360;52.992;6.796;2022-09-13T16:23:18;19.40;99.90
54126;DHT22;40360;52.992;6.796;2022-09-13T16:25:44;19.40;99.90
54126;DHT22;40360;52.992;6.796;2022-09-13T16:28:17;19.90;99.90
54126;DHT22;40360;52.992;6.796;2022-09-13T16:30:46;19.50;99.90
54126;DHT22;40360;52.992;6.796;2022-09-13T16:33:12;19.20;99.90
54126;DHT22;40360;52.992;6.796;2022-09-13T16:35:37;19.20;99.90
54126;DHT22;40360;52.992;6.796;2022-09-13T16:38:03;19.40;99.90
54126;DHT22;40360;52.992;6.796;2022-09-13T16:40:29;19.00;99.90
54126;DHT22;40360;52.992;6.796;2022-09-13T16:42:54;19.50;99.90
54126;DHT22;40360;52.992;6.796;2022-09-13T16:45:20;18.80;99.90
54126;DHT22;40360;52.992;6.796;2022-09-13T16:47:45;18.80;99.90
54126;DHT22;40360;52.992;6.796;2022-09-13T16:50:12;18.70;99.90
54126;DHT22;40360;52.992;6.796;2022-09-13T16:52:38;18.60;99.90
54126;DHT22;40360;52.992;6.796;2022-09-13T16:55:04;18.60;99.90
54126;DHT22;40360;52.992;6.796;2022-09-13T16:57:30;18.50;99.90
54126;DHT22;40360;52.992;6.796;2022-09-13T16:59:56;18.60;99.90
54126;DHT22;40360;52.992;6.796;2022-09-13T17:02:24;18.40;99.90
54126;DHT22;40360;52.992;6.796;2022-09-13T17:04:50;18.30;99.90
54126;DHT22;40360;52.992;6.796;2022-09-13T17:07:15;18.30;99.90
54126;DHT22;40360;52.992;6.796;2022-09-13T17:09:41;18.20;99.90
54126;DHT22;40360;52.992;6.796;2022-09-13T17:12:09;18.20;99.90
54126;DHT22;40360;52.992;6.796;2022-09-13T17:14:36;18.10;99.90
54126;DHT22;40360;52.992;6.796;2022-09-13T17:17:03;18.10;99.90
54126;DHT22;40360;52.992;6.796;2022-09-13T17:19:31;18.10;99.90
54126;DHT22;40360;52.992;6.796;2022-09-13T17:22:02;18.00;99.90
54126;DHT22;40360;52.992;6.796;2022-09-13T17:24:29;18.20;99.90
54126;DHT22;40360;52.992;6.796;2022-09-13T17:26:59;18.10;99.90
54126;DHT22;40360;52.992;6.796;2022-09-13T17:29:24;17.90;99.90
54126;DHT22;40360;52.992;6.796;2022-09-13T17:31:52;17.80;99.90
54126;DHT22;40360;52.992;6.796;2022-09-13T17:34:18;17.70;99.90
54126;DHT22;40360;52.992;6.796;2022-09-13T17:36:43;17.70;99.90
54126;DHT22;40360;52.992;6.796;2022-09-13T17:39:09;17.60;99.90
54126;DHT22;40360;52.992;6.796;2022-09-13T17:41:35;17.60;99.90
54126;DHT22;40360;52.992;6.796;2022-09-13T17:44:01;17.50;99.90
54126;DHT22;40360;52.992;6.796;2022-09-13T17:46:27;17.50;99.90
54126;DHT22;40360;52.992;6.796;2022-09-13T17:48:55;17.50;99.90
54126;DHT22;40360;52.992;6.796;2022-09-13T17:51:24;17.40;99.90
54126;DHT22;40360;52.992;6.796;2022-09-13T17:53:53;17.40;99.90
54126;DHT22;40360;52.992;6.796;2022-09-13T17:56:23;17.30;99.90
54126;DHT22;40360;52.992;6.796;2022-09-13T17:59:02;17.40;99.90
54126;DHT22;40360;52.992;6.796;2022-09-13T18:01:28;17.20;99.90
54126;DHT22;40360;52.992;6.796;2022-09-13T18:03:53;17.80;99.90
54126;DHT22;40360;52.992;6.796;2022-09-13T18:06:20;17.00;99.90
54126;DHT22;40360;52.992;6.796;2022-09-13T18:08:46;17.00;99.90
54126;DHT22;40360;52.992;6.796;2022-09-13T18:11:14;17.70;99.90
54126;DHT22;40360;52.992;6.796;2022-09-13T18:13:41;16.80;99.90
54126;DHT22;40360;52.992;6.796;2022-09-13T18:16:18;16.80;99.90
54126;DHT22;40360;52.992;6.796;2022-09-13T18:18:45;17.40;99.90
54126;DHT22;40360;52.992;6.796;2022-09-13T18:21:12;16.70;99.90
54126;DHT22;40360;52.992;6.796;2022-09-13T18:23:43;16.60;99.90
54126;DHT22;40360;52.992;6.796;2022-09-13T18:26:13;16.60;99.90
54126;DHT22;40360;52.992;6.796;2022-09-13T18:28:39;16.40;99.90
54126;DHT22;40360;52.992;6.796;2022-09-13T18:31:08;16.60;99.90
54126;DHT22;40360;52.992;6.796;2022-09-13T18:33:35;16.80;99.90
54126;DHT22;40360;52.992;6.796;2022-09-13T18:36:08;17.10;99.90
54126;DHT22;40360;52.992;6.796;2022-09-13T18:38:40;16.40;99.90
54126;DHT22;40360;52.992;6.796;2022-09-13T18:41:08;17.30;99.90
54126;DHT22;40360;52.992;6.796;2022-09-13T18:43:35;16.30;99.90
54126;DHT22;40360;52.992;6.796;2022-09-13T18:46:04;17.20;99.90
54126;DHT22;40360;52.992;6.796;2022-09-13T18:48:31;16.30;99.90
54126;DHT22;40360;52.992;6.796;2022-09-13T18:50:57;16.60;99.90
54126;DHT22;40360;52.992;6.796;2022-09-13T18:53:24;16.20;99.90
54126;DHT22;40360;52.992;6.796;2022-09-13T18:55:50;16.20;99.90
54126;DHT22;40360;52.992;6.796;2022-09-13T18:58:15;16.20;99.90
54126;DHT22;40360;52.992;6.796;2022-09-13T19:00:41;16.20;99.90
54126;DHT22;40360;52.992;6.796;2022-09-13T19:03:10;16.10;99.90
54126;DHT22;40360;52.992;6.796;2022-09-13T19:05:37;16.10;99.90
54126;DHT22;40360;52.992;6.796;2022-09-13T19:08:08;16.00;99.90
54126;DHT22;40360;52.992;6.796;2022-09-13T19:10:36;15.90;99.90
54126;DHT22;40360;52.992;6.796;2022-09-13T19:13:02;15.80;99.90
54126;DHT22;40360;52.992;6.796;2022-09-13T19:15:28;15.60;99.90
54126;DHT22;40360;52.992;6.796;2022-09-13T19:17:54;15.50;99.90
54126;DHT22;40360;52.992;6.796;2022-09-13T19:20:20;15.30;99.90
54126;DHT22;40360;52.992;6.796;2022-09-13T19:22:47;15.10;99.90
54126;DHT22;40360;52.992;6.796;2022-09-13T19:25:13;15.00;99.90
54126;DHT22;40360;52.992;6.796;2022-09-13T19:27:39;15.00;99.90
54126;DHT22;40360;52.992;6.796;2022-09-13T19:30:06;14.90;99.90